createdAt,value
2018-03-07T00:00:22.059Z,58.90
2018-03-07T00:01:21.941Z,58.30
2018-03-07T00:02:21.843Z,59.50
2018-03-07T00:03:21.722Z,58.40
2018-03-07T00:04:21.622Z,59.10
2018-03-07T00:05:21.517Z,59.00
2018-03-07T00:06:21.403Z,59.00
2018-03-07T00:07:21.301Z,58.90
2018-03-07T00:08:21.196Z,57.20
2018-03-07T00:09:21.094Z,56.90
2018-03-07T00:10:20.996Z,56.70
2018-03-07T00:11:20.879Z,57.50
2018-03-07T00:12:20.769Z,57.60
2018-03-07T00:13:20.665Z,59.10
2018-03-07T00:14:20.557Z,57.50
2018-03-07T00:15:20.458Z,56.80
2018-03-07T00:16:20.354Z,59.70
2018-03-07T00:17:20.247Z,58.50
2018-03-07T00:18:20.151Z,56.10
2018-03-07T00:19:20.029Z,55.70
2018-03-07T00:20:19.933Z,57.90
2018-03-07T00:21:19.813Z,56.00
2018-03-07T00:22:19.706Z,58.90
2018-03-07T00:23:19.606Z,59.20
2018-03-07T00:24:19.504Z,59.10
2018-03-07T00:25:19.405Z,57.50
2018-03-07T00:26:19.286Z,58.60
2018-03-07T00:27:19.181Z,59.20
2018-03-07T00:28:19.084Z,58.90
2018-03-07T00:29:18.985Z,58.80
2018-03-07T00:30:18.857Z,58.90
2018-03-07T00:31:18.758Z,60.60
2018-03-07T00:32:18.648Z,59.00
2018-03-07T00:33:18.549Z,56.30
2018-03-07T00:34:18.449Z,57.80
2018-03-07T00:35:18.331Z,57.80
2018-03-07T00:36:18.231Z,59.80
2018-03-07T00:37:18.121Z,58.20
2018-03-07T00:38:18.017Z,56.10
2018-03-07T00:39:17.918Z,58.30
2018-03-07T00:40:17.800Z,58.40
2018-03-07T00:41:17.697Z,55.90
2018-03-07T00:42:17.594Z,57.80
2018-03-07T00:43:17.491Z,57.50
2018-03-07T00:44:17.388Z,58.70
2018-03-07T00:45:17.267Z,55.70
2018-03-07T00:46:17.170Z,57.10
2018-03-07T00:47:17.076Z,58.50
2018-03-07T00:48:16.963Z,56.10
2018-03-07T00:49:16.860Z,58.70
2018-03-07T00:50:16.744Z,59.00
2018-03-07T00:51:16.636Z,59.10
2018-03-07T00:52:16.536Z,60.20
2018-03-07T00:53:16.428Z,57.50
2018-03-07T00:54:16.316Z,58.90
2018-03-07T00:55:16.218Z,59.10
2018-03-07T00:56:16.106Z,59.80
2018-03-07T00:57:16.009Z,58.40
2018-03-07T00:58:15.904Z,59.60
2018-03-07T00:59:15.786Z,58.90
2018-03-07T01:00:15.682Z,60.20
2018-03-07T01:01:15.582Z,57.60
2018-03-07T01:02:15.480Z,58.20
2018-03-07T01:03:15.372Z,58.50
2018-03-07T01:04:15.270Z,59.80
2018-03-07T01:05:15.163Z,61.30
2018-03-07T01:06:15.050Z,59.90
2018-03-07T01:07:14.949Z,61.30
2018-03-07T01:08:14.885Z,61.20
2018-03-07T01:09:14.731Z,62.80
2018-03-07T01:10:14.628Z,61.10
2018-03-07T01:11:14.524Z,59.30
2018-03-07T01:12:14.419Z,62.40
2018-03-07T01:13:14.320Z,60.40
2018-03-07T01:14:14.194Z,61.10
2018-03-07T01:15:14.097Z,58.80
2018-03-07T01:16:13.988Z,60.80
2018-03-07T01:17:13.896Z,57.80
2018-03-07T01:18:13.779Z,61.30
2018-03-07T01:19:13.675Z,60.80
2018-03-07T01:20:13.573Z,60.70
2018-03-07T01:21:13.464Z,59.50
2018-03-07T01:22:13.362Z,59.80
2018-03-07T01:23:13.259Z,59.80
2018-03-07T01:24:13.138Z,59.10
2018-03-07T01:25:13.038Z,60.60
2018-03-07T01:26:12.938Z,60.40
2018-03-07T01:27:13.082Z,59.80
2018-03-07T01:28:12.733Z,62.00
2018-03-07T01:29:12.613Z,61.60
2018-03-07T01:30:12.507Z,60.70
2018-03-07T01:31:12.409Z,61.10
2018-03-07T01:32:12.302Z,62.00
2018-03-07T01:33:12.206Z,61.90
2018-03-07T01:34:12.086Z,62.60
2018-03-07T01:35:11.977Z,61.00
2018-03-07T01:36:11.881Z,61.60
2018-03-07T01:37:12.018Z,62.10
2018-03-07T01:38:11.659Z,64.90
2018-03-07T01:39:11.558Z,64.30
2018-03-07T01:40:11.449Z,64.60
2018-03-07T01:41:11.354Z,63.70
2018-03-07T01:42:11.246Z,62.40
2018-03-07T01:43:11.131Z,63.20
2018-03-07T01:44:11.030Z,64.30
2018-03-07T01:45:10.926Z,64.20
2018-03-07T01:46:10.814Z,63.90
2018-03-07T01:47:10.715Z,65.40
2018-03-07T01:48:10.613Z,64.00
2018-03-07T01:49:10.509Z,64.40
2018-03-07T01:50:10.399Z,62.90
2018-03-07T01:51:10.290Z,65.70
2018-03-07T01:52:10.190Z,66.20
2018-03-07T01:53:10.070Z,67.00
2018-03-07T01:54:09.965Z,65.90
2018-03-07T01:55:09.869Z,65.90
2018-03-07T01:56:09.756Z,62.70
2018-03-07T01:57:09.662Z,64.70
2018-03-07T01:58:09.542Z,63.80
2018-03-07T01:59:09.435Z,63.60
2018-03-07T02:00:09.339Z,65.50
2018-03-07T02:01:09.230Z,64.50
2018-03-07T02:02:09.131Z,65.00
2018-03-07T02:03:09.015Z,64.60
2018-03-07T02:04:08.904Z,67.40
2018-03-07T02:05:08.826Z,65.40
2018-03-07T02:06:08.701Z,64.80
2018-03-07T02:07:08.845Z,69.20
2018-03-07T02:08:08.531Z,66.30
2018-03-07T02:09:08.382Z,67.00
2018-03-07T02:10:08.286Z,68.40
2018-03-07T02:11:08.174Z,68.80
2018-03-07T02:12:08.066Z,69.90
2018-03-07T02:13:07.957Z,69.80
2018-03-07T02:14:07.853Z,71.90
2018-03-07T02:15:07.746Z,70.00
2018-03-07T02:16:07.647Z,72.00
2018-03-07T02:17:07.791Z,72.90
2018-03-07T02:18:07.424Z,71.90
2018-03-07T02:19:07.322Z,73.40
2018-03-07T02:20:07.217Z,70.70
2018-03-07T02:21:07.116Z,73.20
2018-03-07T02:22:07.013Z,74.60
2018-03-07T02:23:06.912Z,76.00
2018-03-07T02:24:06.793Z,73.00
2018-03-07T02:25:06.684Z,71.60
2018-03-07T02:26:06.582Z,70.30
2018-03-07T02:27:06.482Z,70.60
2018-03-07T02:28:06.378Z,73.30
2018-03-07T02:29:06.265Z,73.80
2018-03-07T02:30:06.162Z,75.30
2018-03-07T02:31:06.054Z,73.00
2018-03-07T02:32:05.959Z,75.60
2018-03-07T02:33:05.849Z,76.50
2018-03-07T02:34:05.730Z,74.90
2018-03-07T02:35:05.633Z,73.00
2018-03-07T02:36:05.526Z,74.90
2018-03-07T02:37:05.424Z,75.90
2018-03-07T02:38:05.320Z,73.10
2018-03-07T02:39:05.206Z,77.10
2018-03-07T02:40:05.104Z,75.00
2018-03-07T02:41:04.999Z,76.30
2018-03-07T02:42:04.894Z,76.20
2018-03-07T02:43:04.794Z,76.40
2018-03-07T02:44:04.674Z,78.30
2018-03-07T02:45:04.572Z,77.30
2018-03-07T02:46:04.475Z,77.70
2018-03-07T02:47:04.362Z,77.90
2018-03-07T02:48:04.264Z,79.10
2018-03-07T02:49:04.151Z,80.00
2018-03-07T02:50:04.046Z,76.30
2018-03-07T02:51:03.946Z,80.00
2018-03-07T02:52:03.834Z,77.80
2018-03-07T02:53:03.737Z,76.90
2018-03-07T02:54:03.624Z,77.70
2018-03-07T02:55:03.512Z,79.90
2018-03-07T02:56:03.410Z,83.20
2018-03-07T02:57:03.311Z,79.40
2018-03-07T02:58:03.203Z,79.10
2018-03-07T02:59:03.094Z,80.40
2018-03-07T03:00:03.002Z,80.10
2018-03-07T03:01:02.885Z,81.00
2018-03-07T03:02:03.081Z,79.40
2018-03-07T03:03:02.676Z,80.80
2018-03-07T03:04:02.561Z,80.80
2018-03-07T03:05:02.451Z,77.70
2018-03-07T03:06:02.356Z,80.20
2018-03-07T03:07:02.250Z,79.60
2018-03-07T03:08:02.158Z,80.50
2018-03-07T03:09:02.043Z,81.60
2018-03-07T03:10:01.924Z,78.10
2018-03-07T03:11:01.826Z,78.10
2018-03-07T03:12:01.720Z,76.80
2018-03-07T03:13:01.622Z,78.20
2018-03-07T03:14:01.518Z,77.80
2018-03-07T03:15:01.396Z,77.90
2018-03-07T03:16:01.299Z,79.20
2018-03-07T03:17:01.188Z,79.80
2018-03-07T03:18:01.085Z,80.90
2018-03-07T03:19:00.986Z,79.10
2018-03-07T03:20:00.867Z,79.30
2018-03-07T03:21:00.771Z,77.60
2018-03-07T03:22:00.666Z,76.80
2018-03-07T03:23:00.557Z,74.40
2018-03-07T03:24:00.457Z,76.70
2018-03-07T03:25:00.343Z,73.60
2018-03-07T03:26:00.234Z,74.90
2018-03-07T03:27:00.139Z,78.10
2018-03-07T03:28:00.026Z,72.80
2018-03-07T03:28:59.930Z,76.10
2018-03-07T03:29:59.821Z,74.00
2018-03-07T03:30:59.708Z,75.90
2018-03-07T03:31:59.607Z,71.80
2018-03-07T03:32:59.502Z,73.50
2018-03-07T03:33:59.398Z,74.50
2018-03-07T03:34:59.295Z,73.00
2018-03-07T03:35:59.174Z,73.40
2018-03-07T03:36:59.079Z,75.90
2018-03-07T03:37:58.970Z,73.80
2018-03-07T03:38:58.877Z,72.50
2018-03-07T03:39:58.769Z,75.40
2018-03-07T03:40:58.646Z,76.60
2018-03-07T03:41:58.791Z,76.30
2018-03-07T03:42:58.442Z,77.60
2018-03-07T03:43:58.341Z,78.30
2018-03-07T03:44:58.238Z,79.80
2018-03-07T03:45:58.125Z,80.50
2018-03-07T03:46:58.013Z,82.00
2018-03-07T03:47:57.921Z,82.50
2018-03-07T03:48:57.810Z,84.20
2018-03-07T03:49:57.702Z,80.70
2018-03-07T03:50:57.597Z,84.60
2018-03-07T03:51:57.486Z,84.80
2018-03-07T03:52:57.386Z,84.30
2018-03-07T03:53:57.284Z,81.70
2018-03-07T03:54:57.176Z,83.30
2018-03-07T03:55:57.076Z,82.00
2018-03-07T03:56:56.973Z,82.60
2018-03-07T03:57:56.856Z,83.20
2018-03-07T03:58:56.755Z,80.70
2018-03-07T03:59:56.647Z,81.50
2018-03-07T04:00:56.546Z,81.80
2018-03-07T04:01:56.434Z,80.70
2018-03-07T04:02:56.328Z,83.00
2018-03-07T04:03:56.224Z,81.30
2018-03-07T04:04:56.119Z,81.00
2018-03-07T04:05:56.018Z,81.50
2018-03-07T04:06:56.153Z,80.50
2018-03-07T04:07:55.804Z,80.10
2018-03-07T04:08:55.699Z,80.30
2018-03-07T04:09:55.590Z,78.70
2018-03-07T04:10:55.489Z,79.40
2018-03-07T04:11:55.387Z,81.10
2018-03-07T04:12:55.266Z,81.00
2018-03-07T04:13:55.166Z,83.70
2018-03-07T04:14:55.064Z,81.80
2018-03-07T04:15:54.958Z,81.00
2018-03-07T04:16:54.860Z,81.40
2018-03-07T04:17:54.799Z,81.10
2018-03-07T04:18:54.631Z,80.00
2018-03-07T04:19:54.534Z,82.40
2018-03-07T04:20:54.428Z,81.70
2018-03-07T04:21:54.328Z,82.40
2018-03-07T04:22:54.212Z,79.00
2018-03-07T04:23:54.102Z,81.50
2018-03-07T04:24:54.004Z,80.10
2018-03-07T04:25:53.899Z,83.00
2018-03-07T04:26:54.098Z,81.10
2018-03-07T04:27:53.682Z,84.00
2018-03-07T04:28:53.572Z,82.40
2018-03-07T04:29:53.469Z,84.40
2018-03-07T04:30:53.370Z,82.10
2018-03-07T04:31:53.267Z,83.80
2018-03-07T04:32:53.153Z,84.60
2018-03-07T04:33:53.054Z,81.40
2018-03-07T04:34:52.942Z,84.40
2018-03-07T04:35:52.845Z,86.00
2018-03-07T04:36:52.975Z,83.30
2018-03-07T04:37:52.621Z,83.10
2018-03-07T04:38:52.520Z,81.30
2018-03-07T04:39:52.413Z,81.40
2018-03-07T04:40:52.313Z,80.90
2018-03-07T04:41:52.211Z,84.60
2018-03-07T04:42:52.097Z,81.30
2018-03-07T04:43:51.994Z,80.80
2018-03-07T04:44:51.886Z,81.00
2018-03-07T04:45:51.781Z,80.90
2018-03-07T04:46:51.685Z,82.40
2018-03-07T04:47:51.560Z,83.40
2018-03-07T04:48:51.460Z,81.10
2018-03-07T04:49:51.363Z,82.00
2018-03-07T04:50:51.251Z,80.80
2018-03-07T04:51:51.153Z,81.60
2018-03-07T04:52:51.037Z,79.90
2018-03-07T04:53:50.930Z,79.40
2018-03-07T04:54:50.831Z,78.40
2018-03-07T04:55:50.728Z,86.00
2018-03-07T04:56:50.926Z,79.90
2018-03-07T04:57:50.506Z,80.30
2018-03-07T04:58:50.401Z,81.20
2018-03-07T04:59:50.299Z,80.80
2018-03-07T05:00:50.195Z,80.10
2018-03-07T05:01:50.088Z,79.00
2018-03-07T05:02:49.981Z,82.90
2018-03-07T05:03:49.876Z,80.80
2018-03-07T05:04:49.774Z,82.80
2018-03-07T05:05:49.668Z,79.90
2018-03-07T05:06:49.815Z,80.20
2018-03-07T05:07:49.447Z,82.10
2018-03-07T05:08:49.363Z,80.50
2018-03-07T05:09:49.238Z,79.50
2018-03-07T05:10:49.138Z,80.10
2018-03-07T05:11:49.035Z,79.80
2018-03-07T05:12:48.921Z,80.30
2018-03-07T05:13:48.817Z,79.70
2018-03-07T05:14:48.714Z,80.10
2018-03-07T05:15:48.607Z,80.10
2018-03-07T05:16:48.508Z,78.80
2018-03-07T05:17:48.393Z,79.30
2018-03-07T05:18:48.301Z,80.20
2018-03-07T05:19:48.188Z,80.30
2018-03-07T05:20:48.076Z,78.60
2018-03-07T05:21:47.968Z,78.30
2018-03-07T05:22:47.864Z,80.70
2018-03-07T05:23:47.755Z,78.20
2018-03-07T05:24:47.659Z,78.50
2018-03-07T05:25:47.553Z,78.00
2018-03-07T05:26:47.435Z,79.40
2018-03-07T05:27:47.337Z,79.00
2018-03-07T05:28:47.228Z,77.40
2018-03-07T05:29:47.128Z,79.50
2018-03-07T05:30:47.038Z,79.20
2018-03-07T05:31:47.158Z,77.30
2018-03-07T05:32:46.806Z,78.40
2018-03-07T05:33:46.700Z,75.50
2018-03-07T05:34:46.592Z,75.30
2018-03-07T05:35:46.495Z,76.30
2018-03-07T05:36:46.376Z,77.00
2018-03-07T05:37:46.273Z,75.50
2018-03-07T05:38:46.171Z,75.30
2018-03-07T05:39:46.063Z,74.70
2018-03-07T05:40:45.962Z,76.30
2018-03-07T05:41:45.848Z,73.90
2018-03-07T05:42:45.740Z,73.30
2018-03-07T05:43:45.643Z,74.80
2018-03-07T05:44:45.539Z,73.30
2018-03-07T05:45:45.435Z,74.30
2018-03-07T05:46:45.324Z,72.80
2018-03-07T05:47:45.226Z,74.50
2018-03-07T05:48:45.115Z,73.30
2018-03-07T05:49:45.012Z,73.10
2018-03-07T05:50:44.903Z,71.80
2018-03-07T05:51:44.795Z,74.80
2018-03-07T05:52:44.689Z,75.20
2018-03-07T05:53:44.579Z,71.30
2018-03-07T05:54:44.480Z,73.80
2018-03-07T05:55:44.377Z,73.50
2018-03-07T05:56:44.265Z,75.60
2018-03-07T05:57:44.159Z,74.40
2018-03-07T05:58:44.063Z,74.70
2018-03-07T05:59:43.969Z,75.30
2018-03-07T06:00:43.847Z,76.60
2018-03-07T06:01:43.978Z,74.10
2018-03-07T06:02:43.629Z,75.80
2018-03-07T06:03:43.521Z,77.10
2018-03-07T06:04:43.421Z,76.30
2018-03-07T06:05:43.326Z,76.60
2018-03-07T06:06:43.199Z,74.90
2018-03-07T06:07:43.101Z,75.20
2018-03-07T06:08:42.992Z,74.90
2018-03-07T06:09:42.893Z,74.60
2018-03-07T06:10:42.791Z,74.90
2018-03-07T06:11:42.688Z,72.20
2018-03-07T06:12:42.570Z,72.60
2018-03-07T06:13:42.471Z,70.40
2018-03-07T06:14:42.359Z,71.90
2018-03-07T06:15:42.261Z,73.40
2018-03-07T06:16:42.155Z,70.90
2018-03-07T06:17:42.039Z,73.30
2018-03-07T06:18:41.940Z,73.90
2018-03-07T06:19:41.833Z,73.50
2018-03-07T06:20:41.730Z,70.50
2018-03-07T06:21:41.866Z,70.90
2018-03-07T06:22:41.508Z,70.50
2018-03-07T06:23:41.414Z,70.40
2018-03-07T06:24:41.302Z,70.40
2018-03-07T06:25:41.199Z,71.30
2018-03-07T06:26:41.090Z,69.30
2018-03-07T06:27:40.979Z,69.20
2018-03-07T06:28:40.886Z,70.80
2018-03-07T06:29:40.779Z,70.80
2018-03-07T06:30:40.674Z,70.70
2018-03-07T06:31:40.575Z,68.90
2018-03-07T06:32:40.452Z,71.50
2018-03-07T06:33:40.348Z,69.30
2018-03-07T06:34:40.252Z,69.50
2018-03-07T06:35:40.146Z,69.60
2018-03-07T06:36:40.042Z,71.90
2018-03-07T06:37:39.926Z,70.20
2018-03-07T06:38:39.818Z,68.50
2018-03-07T06:39:39.721Z,70.60
2018-03-07T06:40:39.611Z,68.00
2018-03-07T06:41:39.511Z,69.90
2018-03-07T06:42:39.414Z,69.60
2018-03-07T06:43:39.294Z,67.80
2018-03-07T06:44:39.190Z,68.20
2018-03-07T06:45:39.086Z,68.30
2018-03-07T06:46:38.980Z,68.80
2018-03-07T06:47:38.878Z,67.50
2018-03-07T06:48:38.766Z,69.30
2018-03-07T06:49:38.655Z,65.40
2018-03-07T06:50:38.555Z,66.00
2018-03-07T06:51:38.454Z,67.10
2018-03-07T06:52:38.348Z,64.60
2018-03-07T06:53:38.255Z,65.20
2018-03-07T06:54:38.126Z,64.80
2018-03-07T06:55:38.031Z,62.40
2018-03-07T06:56:37.925Z,63.90
2018-03-07T06:57:37.819Z,64.60
2018-03-07T06:58:37.718Z,63.40
2018-03-07T06:59:37.615Z,63.80
2018-03-07T07:00:37.497Z,65.80
2018-03-07T07:01:37.395Z,66.00
2018-03-07T07:02:37.286Z,66.20
2018-03-07T07:03:37.190Z,63.00
2018-03-07T07:04:37.082Z,64.80
2018-03-07T07:05:36.968Z,64.00
2018-03-07T07:06:36.868Z,64.90
2018-03-07T07:07:36.760Z,64.30
2018-03-07T07:08:36.661Z,62.50
2018-03-07T07:09:36.560Z,64.10
2018-03-07T07:10:36.450Z,65.20
2018-03-07T07:11:36.381Z,63.40
2018-03-07T07:12:36.229Z,64.10
2018-03-07T07:13:36.125Z,64.20
2018-03-07T07:14:36.029Z,62.40
2018-03-07T07:15:35.919Z,63.60
2018-03-07T07:16:35.815Z,62.60
2018-03-07T07:17:35.700Z,62.40
2018-03-07T07:18:35.596Z,64.30
2018-03-07T07:19:35.497Z,62.20
2018-03-07T07:20:35.390Z,62.40
2018-03-07T07:21:35.291Z,62.40
2018-03-07T07:22:35.188Z,63.10
2018-03-07T07:23:35.070Z,60.70
2018-03-07T07:24:34.963Z,60.00
2018-03-07T07:25:34.860Z,61.40
2018-03-07T07:26:34.757Z,59.40
2018-03-07T07:27:34.658Z,61.70
2018-03-07T07:28:34.554Z,61.00
2018-03-07T07:29:34.449Z,61.10
2018-03-07T07:30:34.335Z,61.20
2018-03-07T07:31:34.230Z,61.90
2018-03-07T07:32:34.130Z,59.40
2018-03-07T07:33:34.026Z,59.80
2018-03-07T07:34:33.918Z,58.80
2018-03-07T07:35:33.820Z,57.50
2018-03-07T07:36:33.712Z,57.90
2018-03-07T07:37:33.596Z,58.80
2018-03-07T07:38:33.496Z,60.30
2018-03-07T07:39:33.388Z,57.50
2018-03-07T07:40:33.286Z,58.40
2018-03-07T07:41:33.183Z,55.50
2018-03-07T07:42:33.086Z,57.40
2018-03-07T07:43:32.980Z,56.30
2018-03-07T07:44:32.860Z,57.00
2018-03-07T07:45:32.758Z,58.60
2018-03-07T07:46:32.655Z,56.60
2018-03-07T07:47:32.558Z,58.60
2018-03-07T07:48:32.448Z,59.80
2018-03-07T07:49:32.344Z,61.20
2018-03-07T07:50:32.240Z,59.60
2018-03-07T07:51:32.129Z,58.00
2018-03-07T07:52:32.021Z,58.40
2018-03-07T07:53:31.920Z,57.70
2018-03-07T07:54:31.853Z,56.70
2018-03-07T07:55:31.711Z,55.70
2018-03-07T07:56:31.611Z,56.30
2018-03-07T07:57:31.504Z,54.80
2018-03-07T07:58:31.403Z,56.10
2018-03-07T07:59:31.304Z,54.30
2018-03-07T08:00:31.183Z,52.60
2018-03-07T08:01:31.083Z,52.40
2018-03-07T08:02:30.977Z,52.60
2018-03-07T08:03:30.872Z,53.70
2018-03-07T08:04:30.771Z,53.80
2018-03-07T08:05:30.669Z,54.80
2018-03-07T08:06:30.562Z,55.40
2018-03-07T08:07:30.471Z,54.00
2018-03-07T08:08:30.356Z,53.10
2018-03-07T08:09:30.249Z,53.80
2018-03-07T08:10:30.136Z,52.20
2018-03-07T08:11:30.033Z,51.20
2018-03-07T08:12:29.942Z,50.50
2018-03-07T08:13:29.827Z,53.00
2018-03-07T08:14:29.741Z,53.50
2018-03-07T08:15:29.622Z,52.50
2018-03-07T08:16:29.521Z,54.00
2018-03-07T08:17:29.414Z,52.10
2018-03-07T08:18:29.311Z,49.50
2018-03-07T08:19:29.211Z,49.70
2018-03-07T08:20:29.106Z,51.30
2018-03-07T08:21:28.988Z,52.90
2018-03-07T08:22:28.889Z,48.60
2018-03-07T08:23:28.781Z,50.20
2018-03-07T08:24:28.678Z,48.40
2018-03-07T08:25:28.577Z,48.50
2018-03-07T08:26:28.475Z,49.00
2018-03-07T08:27:28.368Z,47.80
2018-03-07T08:28:28.268Z,47.30
2018-03-07T08:29:28.165Z,48.60
2018-03-07T08:30:28.058Z,44.30
2018-03-07T08:31:27.954Z,46.20
2018-03-07T08:32:27.843Z,44.50
2018-03-07T08:33:27.735Z,43.40
2018-03-07T08:34:27.631Z,42.30
2018-03-07T08:35:27.529Z,43.80
2018-03-07T08:36:27.424Z,43.70
2018-03-07T08:37:27.321Z,44.10
2018-03-07T08:38:27.237Z,43.50
2018-03-07T08:39:27.118Z,43.70
2018-03-07T08:40:27.011Z,44.40
2018-03-07T08:41:26.912Z,46.50
2018-03-07T08:42:26.809Z,46.10
2018-03-07T08:43:26.706Z,48.50
2018-03-07T08:44:26.591Z,47.40
2018-03-07T08:45:26.482Z,47.70
2018-03-07T08:46:26.380Z,46.50
2018-03-07T08:47:26.276Z,46.70
2018-03-07T08:48:26.174Z,48.00
2018-03-07T08:49:26.070Z,45.30
2018-03-07T08:50:26.010Z,44.60
2018-03-07T08:51:25.867Z,45.50
2018-03-07T08:52:25.760Z,46.70
2018-03-07T08:53:25.660Z,45.50
2018-03-07T08:54:25.574Z,49.30
2018-03-07T08:55:25.440Z,49.00
2018-03-07T08:56:25.336Z,47.90
2018-03-07T08:57:25.234Z,48.20
2018-03-07T08:58:25.128Z,47.70
2018-03-07T08:59:25.058Z,47.60
2018-03-07T09:00:24.921Z,47.40
2018-03-07T09:01:25.069Z,46.20
2018-03-07T09:02:24.718Z,44.90
2018-03-07T09:03:24.613Z,44.80
2018-03-07T09:04:24.511Z,43.10
2018-03-07T09:05:24.396Z,42.60
2018-03-07T09:06:24.290Z,43.50
2018-03-07T09:07:24.194Z,41.30
2018-03-07T09:08:24.083Z,41.90
2018-03-07T09:09:23.979Z,41.80
2018-03-07T09:10:23.875Z,39.20
2018-03-07T09:11:23.776Z,39.20
2018-03-07T09:12:23.669Z,37.00
2018-03-07T09:13:23.565Z,38.10
2018-03-07T09:14:23.462Z,39.40
2018-03-07T09:15:23.358Z,37.90
2018-03-07T09:16:23.256Z,40.30
2018-03-07T09:17:23.140Z,37.20
2018-03-07T09:18:23.037Z,38.50
2018-03-07T09:19:22.936Z,40.90
2018-03-07T09:20:22.829Z,38.40
2018-03-07T09:21:22.725Z,39.10
2018-03-07T09:22:22.622Z,40.50
2018-03-07T09:23:22.519Z,41.40
2018-03-07T09:24:22.417Z,39.50
2018-03-07T09:25:22.313Z,39.70
2018-03-07T09:26:22.214Z,38.50
2018-03-07T09:27:22.105Z,39.50
2018-03-07T09:28:22.003Z,37.70
2018-03-07T09:29:21.891Z,38.70
2018-03-07T09:30:21.788Z,35.70
2018-03-07T09:31:21.680Z,38.10
2018-03-07T09:32:21.578Z,38.70
2018-03-07T09:33:21.473Z,39.40
2018-03-07T09:34:21.375Z,39.00
2018-03-07T09:35:21.271Z,39.90
2018-03-07T09:36:21.164Z,37.40
2018-03-07T09:37:21.065Z,40.30
2018-03-07T09:38:20.961Z,38.70
2018-03-07T09:39:20.853Z,36.20
2018-03-07T09:40:20.751Z,35.50
2018-03-07T09:41:20.651Z,36.00
2018-03-07T09:42:20.543Z,35.90
2018-03-07T09:43:20.430Z,34.60
2018-03-07T09:44:20.329Z,34.70
2018-03-07T09:45:20.222Z,32.00
2018-03-07T09:46:20.119Z,34.50
2018-03-07T09:47:20.014Z,33.00
2018-03-07T09:48:19.912Z,36.50
2018-03-07T09:49:19.808Z,33.70
2018-03-07T09:50:19.708Z,36.50
2018-03-07T09:51:19.604Z,36.00
2018-03-07T09:52:19.502Z,35.30
2018-03-07T09:53:19.398Z,35.80
2018-03-07T09:54:19.291Z,35.10
2018-03-07T09:55:19.192Z,36.80
2018-03-07T09:56:19.193Z,33.20
2018-03-07T09:57:18.986Z,32.60
2018-03-07T09:58:18.879Z,32.30
2018-03-07T09:59:18.778Z,31.50
2018-03-07T10:00:18.678Z,29.80
2018-03-07T10:01:18.571Z,31.50
2018-03-07T10:02:18.468Z,31.60
2018-03-07T10:03:18.365Z,31.20
2018-03-07T10:04:18.257Z,33.10
2018-03-07T10:05:18.155Z,30.10
2018-03-07T10:06:18.052Z,32.00
2018-03-07T10:07:17.949Z,33.60
2018-03-07T10:08:17.846Z,34.50
2018-03-07T10:09:17.759Z,34.10
2018-03-07T10:10:17.651Z,29.90
2018-03-07T10:11:17.538Z,32.00
2018-03-07T10:12:17.433Z,30.70
2018-03-07T10:13:17.329Z,32.20
2018-03-07T10:14:17.229Z,30.60
2018-03-07T10:15:17.121Z,31.90
2018-03-07T10:16:17.019Z,31.60
2018-03-07T10:17:16.909Z,31.50
2018-03-07T10:18:16.804Z,32.90
2018-03-07T10:19:16.696Z,31.30
2018-03-07T10:20:16.594Z,32.00
2018-03-07T10:21:16.491Z,33.10
2018-03-07T10:22:16.391Z,32.70
2018-03-07T10:23:16.284Z,30.40
2018-03-07T10:24:16.184Z,31.90
2018-03-07T10:25:16.125Z,32.50
2018-03-07T10:26:15.974Z,32.10
2018-03-07T10:27:15.875Z,31.00
2018-03-07T10:28:15.771Z,31.10
2018-03-07T10:29:15.667Z,29.10
2018-03-07T10:30:15.573Z,28.80
2018-03-07T10:31:15.457Z,27.80
2018-03-07T10:32:15.358Z,29.60
2018-03-07T10:33:15.254Z,29.00
2018-03-07T10:34:15.170Z,31.30
2018-03-07T10:35:15.044Z,29.90
2018-03-07T10:36:14.940Z,29.10
2018-03-07T10:37:14.836Z,29.80
2018-03-07T10:38:14.733Z,28.30
2018-03-07T10:39:14.635Z,28.20
2018-03-07T10:40:14.528Z,28.20
2018-03-07T10:41:14.427Z,26.50
2018-03-07T10:42:14.321Z,28.70
2018-03-07T10:43:14.217Z,29.70
2018-03-07T10:44:14.113Z,29.10
2018-03-07T10:45:14.014Z,28.90
2018-03-07T10:46:13.908Z,30.10
2018-03-07T10:47:13.811Z,29.90
2018-03-07T10:48:13.705Z,29.60
2018-03-07T10:49:13.601Z,29.60
2018-03-07T10:50:13.494Z,28.80
2018-03-07T10:51:13.391Z,27.30
2018-03-07T10:52:13.312Z,29.50
2018-03-07T10:53:13.187Z,28.30
2018-03-07T10:54:13.081Z,27.90
2018-03-07T10:55:12.981Z,27.80
2018-03-07T10:56:12.878Z,29.40
2018-03-07T10:57:12.770Z,28.40
2018-03-07T10:58:12.667Z,27.60
2018-03-07T10:59:12.564Z,28.10
2018-03-07T11:00:12.464Z,27.00
2018-03-07T11:01:12.358Z,28.10
2018-03-07T11:02:12.258Z,28.50
2018-03-07T11:03:12.157Z,29.60
2018-03-07T11:04:12.051Z,27.40
2018-03-07T11:05:11.944Z,28.00
2018-03-07T11:06:11.845Z,27.60
2018-03-07T11:07:11.741Z,28.30
2018-03-07T11:08:11.634Z,30.80
2018-03-07T11:09:11.530Z,30.40
2018-03-07T11:10:11.430Z,28.70
2018-03-07T11:11:11.323Z,30.60
2018-03-07T11:12:11.221Z,31.20
2018-03-07T11:13:11.122Z,30.70
2018-03-07T11:14:11.014Z,28.60
2018-03-07T11:15:10.910Z,28.90
2018-03-07T11:16:10.822Z,29.60
2018-03-07T11:17:10.703Z,27.10
2018-03-07T11:18:10.600Z,28.10
2018-03-07T11:19:10.501Z,28.70
2018-03-07T11:20:10.399Z,28.10
2018-03-07T11:21:10.290Z,29.50
2018-03-07T11:22:10.191Z,29.60
2018-03-07T11:23:10.088Z,27.00
2018-03-07T11:24:09.982Z,27.90
2018-03-07T11:25:09.881Z,26.00
2018-03-07T11:26:09.775Z,25.40
2018-03-07T11:27:09.687Z,24.70
2018-03-07T11:28:09.582Z,25.20
2018-03-07T11:29:09.476Z,26.20
2018-03-07T11:30:09.374Z,26.60
2018-03-07T11:31:09.270Z,27.00
2018-03-07T11:32:09.166Z,27.60
2018-03-07T11:33:09.062Z,27.50
2018-03-07T11:34:08.959Z,26.60
2018-03-07T11:35:08.882Z,27.80
2018-03-07T11:36:08.752Z,30.50
2018-03-07T11:37:08.649Z,27.00
2018-03-07T11:38:08.546Z,26.10
2018-03-07T11:39:08.446Z,26.30
2018-03-07T11:40:08.394Z,29.50
2018-03-07T11:41:08.238Z,26.60
2018-03-07T11:42:08.145Z,28.20
2018-03-07T11:43:08.033Z,26.90
2018-03-07T11:44:07.930Z,28.60
2018-03-07T11:45:07.825Z,28.80
2018-03-07T11:46:07.720Z,28.70
2018-03-07T11:47:07.622Z,27.40
2018-03-07T11:48:07.514Z,28.10
2018-03-07T11:49:07.409Z,27.60
2018-03-07T11:50:07.311Z,26.10
2018-03-07T11:51:07.203Z,26.00
2018-03-07T11:52:07.101Z,26.50
2018-03-07T11:53:06.997Z,27.70
2018-03-07T11:54:06.893Z,28.90
2018-03-07T11:55:06.802Z,28.20
2018-03-07T11:56:06.699Z,29.30
2018-03-07T11:57:06.587Z,28.30
2018-03-07T11:58:06.480Z,27.00
2018-03-07T11:59:06.376Z,28.90
2018-03-07T12:00:06.273Z,29.30
2018-03-07T12:01:06.174Z,28.90
2018-03-07T12:02:06.070Z,29.00
2018-03-07T12:03:05.966Z,27.30
2018-03-07T12:04:05.860Z,26.50
2018-03-07T12:05:05.757Z,27.20
2018-03-07T12:06:05.658Z,29.60
2018-03-07T12:07:05.554Z,29.60
2018-03-07T12:08:05.451Z,27.20
2018-03-07T12:09:05.347Z,27.30
2018-03-07T12:10:05.240Z,28.10
2018-03-07T12:11:05.138Z,28.50
2018-03-07T12:12:05.050Z,28.20
2018-03-07T12:13:04.941Z,30.30
2018-03-07T12:14:04.840Z,28.70
2018-03-07T12:15:04.740Z,27.50
2018-03-07T12:16:04.639Z,27.70
2018-03-07T12:17:04.529Z,28.60
2018-03-07T12:18:04.425Z,27.90
2018-03-07T12:19:04.322Z,28.60
2018-03-07T12:20:04.220Z,26.80
2018-03-07T12:21:04.116Z,29.60
2018-03-07T12:22:04.017Z,29.50
2018-03-07T12:23:03.909Z,29.00
2018-03-07T12:24:03.806Z,29.20
2018-03-07T12:25:03.702Z,31.20
2018-03-07T12:26:03.604Z,31.00
2018-03-07T12:27:03.498Z,32.70
2018-03-07T12:28:03.397Z,33.70
2018-03-07T12:29:03.289Z,30.90
2018-03-07T12:30:03.190Z,32.80
2018-03-07T12:31:03.094Z,32.20
2018-03-07T12:32:02.996Z,33.40
2018-03-07T12:33:02.889Z,34.80
2018-03-07T12:34:02.785Z,33.40
2018-03-07T12:35:02.686Z,34.30
2018-03-07T12:36:02.579Z,34.50
2018-03-07T12:37:02.475Z,35.80
2018-03-07T12:38:02.372Z,35.10
2018-03-07T12:39:02.282Z,37.20
2018-03-07T12:40:02.168Z,36.10
2018-03-07T12:41:02.065Z,36.90
2018-03-07T12:42:01.958Z,38.30
2018-03-07T12:43:01.859Z,37.90
2018-03-07T12:44:01.755Z,39.20
2018-03-07T12:45:01.653Z,38.60
2018-03-07T12:46:01.549Z,38.90
2018-03-07T12:47:01.442Z,38.30
2018-03-07T12:48:01.343Z,38.20
2018-03-07T12:49:01.239Z,38.20
2018-03-07T12:50:01.132Z,39.20
2018-03-07T12:51:01.082Z,37.80